createdAt,value
2023-11-25T00:01:13.565Z,11.60
2023-11-25T00:03:42.201Z,11.10
2023-11-25T00:06:10.648Z,9.70
2023-11-25T00:08:40.305Z,10.90
2023-11-25T00:11:17.769Z,12.30
2023-11-25T00:13:50.526Z,11.97
2023-11-25T00:16:18.864Z,13.80
2023-11-25T00:18:47.167Z,11.60
2023-11-25T00:21:15.489Z,12.57
2023-11-25T00:23:45.124Z,9.67
2023-11-25T00:26:13.599Z,11.90
2023-11-25T00:28:52.697Z,12.67
2023-11-25T00:31:21.423Z,12.80
2023-11-25T00:33:49.731Z,9.97
2023-11-25T00:36:18.069Z,13.67
2023-11-25T00:38:48.012Z,12.63
2023-11-25T00:41:16.258Z,11.00
2023-11-25T00:43:44.617Z,14.27
2023-11-25T00:46:12.990Z,17.17
2023-11-25T00:48:43.519Z,10.43
2023-11-25T00:51:11.822Z,12.30
2023-11-25T00:53:40.391Z,11.97
2023-11-25T00:56:10.328Z,10.03
2023-11-25T00:58:38.775Z,14.00
2023-11-25T01:01:07.213Z,15.80
2023-11-25T01:03:35.597Z,13.23
2023-11-25T01:06:09.223Z,13.87
2023-11-25T01:08:37.949Z,14.33
2023-11-25T01:11:06.952Z,12.27
2023-11-25T01:13:36.708Z,11.67
2023-11-25T01:16:06.201Z,10.60
2023-11-25T01:18:35.404Z,10.13
2023-11-25T01:21:04.167Z,12.43
2023-11-25T01:23:32.445Z,11.23
2023-11-25T01:26:00.737Z,10.93
2023-11-25T01:28:31.012Z,12.07
2023-11-25T01:31:01.184Z,9.23
2023-11-25T01:33:29.539Z,9.70
2023-11-25T01:35:57.872Z,10.77
2023-11-25T01:38:26.042Z,8.73
2023-11-25T01:40:57.055Z,10.70
2023-11-25T01:43:26.631Z,9.53
2023-11-25T01:45:57.855Z,12.10
2023-11-25T01:48:29.702Z,9.37
2023-11-25T01:50:58.551Z,10.93
2023-11-25T01:53:29.601Z,10.63
2023-11-25T01:55:59.707Z,7.80
2023-11-25T01:58:29.099Z,12.90
2023-11-25T02:00:57.977Z,8.73
2023-11-25T02:03:27.767Z,9.67
2023-11-25T02:05:56.081Z,11.93
2023-11-25T02:08:24.346Z,13.03
2023-11-25T02:10:53.929Z,9.63
2023-11-25T02:13:24.857Z,9.73
2023-11-25T02:15:54.282Z,7.97
2023-11-25T02:18:23.883Z,13.60
2023-11-25T02:20:54.374Z,9.63
2023-11-25T02:23:25.036Z,6.97
2023-11-25T02:25:54.404Z,12.27
2023-11-25T02:28:22.911Z,10.70
2023-11-25T02:30:51.465Z,9.73
2023-11-25T02:33:19.728Z,10.30
2023-11-25T02:35:48.863Z,10.07
2023-11-25T02:38:17.661Z,11.67
2023-11-25T02:40:50.315Z,8.00
2023-11-25T02:43:19.313Z,9.80
2023-11-25T02:45:49.492Z,10.77
2023-11-25T02:48:18.275Z,10.83
2023-11-25T02:50:47.453Z,8.80
2023-11-25T02:53:15.854Z,13.03
2023-11-25T02:55:44.903Z,8.20
2023-11-25T02:58:14.870Z,9.70
2023-11-25T03:00:44.783Z,10.23
2023-11-25T03:03:18.183Z,17.27
2023-11-25T03:05:49.182Z,8.37
2023-11-25T03:08:18.658Z,9.07
2023-11-25T03:10:48.994Z,8.77
2023-11-25T03:13:19.025Z,8.33
2023-11-25T03:15:47.466Z,10.03
2023-11-25T03:18:15.781Z,9.37
2023-11-25T03:20:44.016Z,9.27
2023-11-25T03:23:12.356Z,11.27
2023-11-25T03:25:42.070Z,11.07
2023-11-25T03:28:12.190Z,15.27
2023-11-25T03:30:43.000Z,14.43
2023-11-25T03:33:11.804Z,14.07
2023-11-25T03:35:40.131Z,11.67
2023-11-25T03:38:08.467Z,12.30
2023-11-25T03:40:37.032Z,10.23
2023-11-25T03:43:05.374Z,10.13
2023-11-25T03:45:33.654Z,9.00
2023-11-25T03:48:04.020Z,9.30
2023-11-25T03:50:32.415Z,12.40
2023-11-25T03:53:00.783Z,8.57
2023-11-25T03:55:29.918Z,8.13
2023-11-25T03:57:58.134Z,6.10
2023-11-25T04:00:27.101Z,6.87
2023-11-25T04:02:55.699Z,8.93
2023-11-25T04:05:25.589Z,9.30
2023-11-25T04:07:54.343Z,8.53
2023-11-25T04:10:22.848Z,8.00
2023-11-25T04:12:53.678Z,7.73
2023-11-25T04:15:22.879Z,6.97
2023-11-25T04:17:52.759Z,7.90
2023-11-25T04:20:29.599Z,10.37
2023-11-25T04:23:07.279Z,8.57
2023-11-25T04:25:37.369Z,9.30
2023-11-25T04:28:07.895Z,9.43
2023-11-25T04:30:37.149Z,9.13
2023-11-25T04:33:05.464Z,9.50
2023-11-25T04:35:33.735Z,8.87
2023-11-25T04:38:03.763Z,9.20
2023-11-25T04:40:32.067Z,10.73
2023-11-25T04:43:00.887Z,8.63
2023-11-25T04:45:29.106Z,9.03
2023-11-25T04:47:57.424Z,11.20
2023-11-25T04:50:27.980Z,11.40
2023-11-25T04:52:56.709Z,8.30
2023-11-25T04:55:28.796Z,10.67
2023-11-25T04:57:57.612Z,9.67
2023-11-25T05:00:25.920Z,8.77
2023-11-25T05:02:54.517Z,7.43
2023-11-25T05:05:23.093Z,9.30
2023-11-25T05:07:51.340Z,8.30
2023-11-25T05:10:21.609Z,7.20
2023-11-25T05:12:52.341Z,7.83
2023-11-25T05:15:23.719Z,8.60
2023-11-25T05:17:52.231Z,9.63
2023-11-25T05:20:20.778Z,9.20
2023-11-25T05:22:49.153Z,8.47
2023-11-25T05:25:17.989Z,11.20
2023-11-25T05:27:46.252Z,15.53
2023-11-25T05:30:17.173Z,9.87
2023-11-25T05:32:46.139Z,10.73
2023-11-25T05:35:15.644Z,9.50
2023-11-25T05:37:45.586Z,9.87
2023-11-25T05:40:16.583Z,8.07
2023-11-25T05:42:50.036Z,8.27
2023-11-25T05:45:21.900Z,9.53
2023-11-25T05:47:51.527Z,8.40
2023-11-25T05:50:22.767Z,8.80
2023-11-25T05:52:51.547Z,8.90
2023-11-25T05:55:21.994Z,9.03
2023-11-25T05:57:52.495Z,9.70
2023-11-25T06:00:24.416Z,8.37
2023-11-25T06:02:54.515Z,8.67
2023-11-25T06:05:23.095Z,7.63
2023-11-25T06:07:51.668Z,8.27
2023-11-25T06:10:20.707Z,7.53
2023-11-25T06:12:49.044Z,10.47
2023-11-25T06:15:17.585Z,9.43
2023-11-25T06:17:48.300Z,7.30
2023-11-25T06:20:16.578Z,8.93
2023-11-25T06:22:44.825Z,9.70
2023-11-25T06:25:13.192Z,9.80
2023-11-25T06:27:43.237Z,10.63
2023-11-25T06:30:13.753Z,10.90
2023-11-25T06:32:42.084Z,10.60
2023-11-25T06:35:13.344Z,12.30
2023-11-25T06:37:42.476Z,11.33
2023-11-25T06:40:14.826Z,11.30
2023-11-25T06:42:43.885Z,11.77
2023-11-25T06:45:14.121Z,11.13
2023-11-25T06:47:43.289Z,13.57
2023-11-25T06:50:13.856Z,20.50
2023-11-25T06:52:42.416Z,19.40
2023-11-25T06:55:11.876Z,17.30
2023-11-25T06:57:42.292Z,14.60
2023-11-25T07:00:12.717Z,24.47
2023-11-25T07:02:42.227Z,22.67
2023-11-25T07:05:14.888Z,22.53
2023-11-25T07:07:43.470Z,20.20
2023-11-25T07:10:15.458Z,15.30
2023-11-25T07:12:44.420Z,16.33
2023-11-25T07:15:13.438Z,17.63
2023-11-25T07:17:42.342Z,20.10
2023-11-25T07:20:17.005Z,20.73
2023-11-25T07:22:45.320Z,20.47
2023-11-25T07:25:14.320Z,18.00
2023-11-25T07:27:43.213Z,18.30
2023-11-25T07:30:12.358Z,19.27
2023-11-25T07:32:41.569Z,18.40
2023-11-25T07:35:11.748Z,19.60
2023-11-25T07:37:41.582Z,16.23
2023-11-25T07:40:16.127Z,19.03
2023-11-25T07:42:50.109Z,21.20
2023-11-25T07:45:18.957Z,16.90
2023-11-25T07:47:48.058Z,19.40
2023-11-25T07:50:17.551Z,15.40
2023-11-25T07:52:47.413Z,16.77
2023-11-25T07:55:15.980Z,14.50
2023-11-25T07:57:44.621Z,13.87
2023-11-25T08:00:17.015Z,12.53
2023-11-25T08:02:46.846Z,13.03
2023-11-25T08:05:23.827Z,10.60
2023-11-25T08:07:55.376Z,9.00
2023-11-25T08:10:32.379Z,11.67
2023-11-25T08:13:01.055Z,8.73
2023-11-25T08:15:29.548Z,9.73
2023-11-25T08:17:58.373Z,8.30
2023-11-25T08:20:26.781Z,11.03
2023-11-25T08:22:56.488Z,5.93
2023-11-25T08:25:25.003Z,6.83
2023-11-25T08:27:53.519Z,6.30
2023-11-25T08:30:22.431Z,8.27
2023-11-25T08:32:50.818Z,7.53
2023-11-25T08:35:19.314Z,6.37
2023-11-25T08:37:49.376Z,9.13
2023-11-25T08:40:22.893Z,9.53
2023-11-25T08:42:51.758Z,5.17
2023-11-25T08:45:20.802Z,6.57
2023-11-25T08:47:50.453Z,7.37
2023-11-25T08:50:20.227Z,8.80
2023-11-25T08:52:50.349Z,5.97
2023-11-25T08:55:21.516Z,6.87
2023-11-25T08:57:52.696Z,5.13
2023-11-25T09:00:21.836Z,8.53
2023-11-25T09:02:52.664Z,7.77
2023-11-25T09:05:24.010Z,5.77
2023-11-25T09:07:53.219Z,5.50
2023-11-25T09:10:24.237Z,7.63
2023-11-25T09:12:53.893Z,7.30
2023-11-25T09:15:23.714Z,15.97
2023-11-25T09:17:52.642Z,7.23
2023-11-25T09:20:22.336Z,5.90
2023-11-25T09:22:50.842Z,6.23
2023-11-25T09:25:19.435Z,6.50
2023-11-25T09:27:51.478Z,6.57
2023-11-25T09:30:19.950Z,5.43
2023-11-25T09:32:48.200Z,7.47
2023-11-25T09:35:17.238Z,8.27
2023-11-25T09:37:46.215Z,6.70
2023-11-25T09:40:16.822Z,9.73
2023-11-25T09:42:49.111Z,8.27
2023-11-25T09:45:17.947Z,7.10
2023-11-25T09:47:46.876Z,8.87
2023-11-25T09:50:15.705Z,8.10
2023-11-25T09:52:51.650Z,7.13
2023-11-25T09:55:23.346Z,8.70
2023-11-25T09:57:58.383Z,10.87
2023-11-25T10:00:28.679Z,8.50
2023-11-25T10:02:59.759Z,8.10
2023-11-25T10:05:30.291Z,8.07
2023-11-25T10:07:59.790Z,8.63
2023-11-25T10:10:30.274Z,6.10
2023-11-25T10:13:01.627Z,7.03
2023-11-25T10:15:29.904Z,8.67
2023-11-25T10:17:58.406Z,8.17
2023-11-25T10:20:27.199Z,9.77
2023-11-25T10:22:58.049Z,8.20
2023-11-25T10:25:29.332Z,12.57
2023-11-25T10:27:59.228Z,8.87
2023-11-25T10:30:29.886Z,7.97
2023-11-25T10:33:02.760Z,11.77
2023-11-25T10:35:31.222Z,9.83
2023-11-25T10:37:59.705Z,9.27
2023-11-25T10:40:28.786Z,11.70
2023-11-25T10:42:57.800Z,9.60
2023-11-25T10:45:29.064Z,8.03
2023-11-25T10:47:59.653Z,8.77
2023-11-25T10:50:28.395Z,8.70
2023-11-25T10:52:59.662Z,10.00
2023-11-25T10:55:30.048Z,11.43
2023-11-25T10:58:01.676Z,10.13
2023-11-25T11:00:32.787Z,11.40
2023-11-25T11:03:06.897Z,10.37
2023-11-25T11:05:44.849Z,14.00
2023-11-25T11:08:20.256Z,10.37
2023-11-25T11:10:56.042Z,11.93
2023-11-25T11:13:28.339Z,10.93
2023-11-25T11:16:01.671Z,13.53
2023-11-25T11:18:37.150Z,13.77
2023-11-25T11:21:10.260Z,14.97
2023-11-25T11:23:39.438Z,14.10
2023-11-25T11:26:20.168Z,12.50
2023-11-25T11:28:53.845Z,12.63
2023-11-25T11:32:02.409Z,14.10
2023-11-25T11:34:32.110Z,14.70
2023-11-25T11:37:02.057Z,15.03
2023-11-25T11:39:40.017Z,14.00
2023-11-25T11:42:35.381Z,13.33
2023-11-25T11:45:17.054Z,13.07
2023-11-25T11:47:48.819Z,12.63
2023-11-25T11:50:21.834Z,14.50
2023-11-25T11:53:14.145Z,17.50
2023-11-25T11:55:43.910Z,14.37
2023-11-25T11:58:12.511Z,12.87
2023-11-25T12:00:51.048Z,14.30
2023-11-25T12:03:20.968Z,13.47
2023-11-25T12:05:49.422Z,12.27
2023-11-25T12:08:17.843Z,13.67
2023-11-25T12:10:46.392Z,12.93
2023-11-25T12:13:14.763Z,12.00
2023-11-25T12:15:43.023Z,10.63
2023-11-25T12:18:13.051Z,10.83
2023-11-25T12:20:42.754Z,10.93
2023-11-25T12:23:11.024Z,10.43
2023-11-25T12:25:39.361Z,9.17
2023-11-25T12:28:09.399Z,12.47
2023-11-25T12:30:39.386Z,9.83
2023-11-25T12:33:08.570Z,8.97
2023-11-25T12:35:37.351Z,8.20
2023-11-25T12:38:14.739Z,9.73
2023-11-25T12:40:46.552Z,9.10
2023-11-25T12:43:15.851Z,10.80
2023-11-25T12:45:46.766Z,15.53
2023-11-25T12:48:20.644Z,10.40
2023-11-25T12:51:05.207Z,12.77
2023-11-25T12:53:35.878Z,16.23
2023-11-25T12:56:04.705Z,15.87
2023-11-25T12:58:33.338Z,13.20
2023-11-25T13:01:01.909Z,10.63
2023-11-25T13:03:32.827Z,12.77
2023-11-25T13:06:02.095Z,8.60
2023-11-25T13:08:34.196Z,9.90
2023-11-25T13:11:05.497Z,10.63
2023-11-25T13:13:34.671Z,12.33
2023-11-25T13:16:05.521Z,9.03
2023-11-25T13:18:34.606Z,8.23
2023-11-25T13:21:07.925Z,10.27
2023-11-25T13:23:36.461Z,11.33
2023-11-25T13:26:07.077Z,12.43
2023-11-25T13:28:35.636Z,12.13
2023-11-25T13:31:03.909Z,10.57
2023-11-25T13:33:32.263Z,11.23
2023-11-25T13:36:00.656Z,11.90
2023-11-25T13:38:29.410Z,14.07
2023-11-25T13:40:58.013Z,11.50
2023-11-25T13:43:27.608Z,10.90
2023-11-25T13:45:56.008Z,13.63
2023-11-25T13:48:24.319Z,9.37
2023-11-25T13:50:52.692Z,13.93
2023-11-25T13:53:20.977Z,13.50
2023-11-25T13:55:50.239Z,13.57
2023-11-25T13:58:18.582Z,11.40
2023-11-25T14:00:48.328Z,8.90
2023-11-25T14:03:17.434Z,10.40
2023-11-25T14:05:47.471Z,10.37
2023-11-25T14:08:19.749Z,15.03
2023-11-25T14:10:48.480Z,12.67
2023-11-25T14:13:17.563Z,14.37
2023-11-25T14:15:47.190Z,12.00
2023-11-25T14:18:15.597Z,10.63
2023-11-25T14:20:43.901Z,9.97
2023-11-25T14:23:12.276Z,13.53
2023-11-25T14:25:40.848Z,11.10
2023-11-25T14:28:09.942Z,8.97
2023-11-25T14:30:38.279Z,15.20
2023-11-25T14:33:07.961Z,12.97
2023-11-25T14:35:37.433Z,13.10
2023-11-25T14:38:07.278Z,10.27
2023-11-25T14:40:40.091Z,12.37
2023-11-25T14:43:09.263Z,10.70
2023-11-25T14:45:37.766Z,13.57
2023-11-25T14:48:08.859Z,13.73
2023-11-25T14:50:42.310Z,15.30
2023-11-25T14:53:13.379Z,19.67
2023-11-25T14:55:43.944Z,12.17
2023-11-25T14:58:12.843Z,12.03
2023-11-25T15:00:42.751Z,14.03
2023-11-25T15:03:13.636Z,12.07
2023-11-25T15:05:42.350Z,9.67
2023-11-25T15:08:10.692Z,12.87
2023-11-25T15:10:41.873Z,12.37
2023-11-25T15:13:10.943Z,10.40
2023-11-25T15:15:39.315Z,9.13
2023-11-25T15:18:08.821Z,9.40
2023-11-25T15:20:39.179Z,10.97
2023-11-25T15:23:07.674Z,9.87
2023-11-25T15:25:36.783Z,10.77
2023-11-25T15:28:07.073Z,10.87
2023-11-25T15:30:36.160Z,13.70
2023-11-25T15:33:05.025Z,10.23
2023-11-25T15:35:33.580Z,9.60
2023-11-25T15:38:03.886Z,8.70
2023-11-25T15:40:32.492Z,7.80
2023-11-25T15:43:00.683Z,14.93
2023-11-25T15:45:28.971Z,14.60
2023-11-25T15:47:57.368Z,11.70
2023-11-25T15:50:25.679Z,13.60
2023-11-25T15:52:55.486Z,14.40
2023-11-25T15:55:25.139Z,15.23
2023-11-25T15:57:54.515Z,10.73
2023-11-25T16:00:24.216Z,11.40
2023-11-25T16:02:53.339Z,16.63
2023-11-25T16:05:23.283Z,12.10
2023-11-25T16:07:52.522Z,10.60
2023-11-25T16:10:20.805Z,12.00
2023-11-25T16:12:50.555Z,14.67
2023-11-25T16:15:20.379Z,16.53
2023-11-25T16:17:49.310Z,11.63
2023-11-25T16:20:19.205Z,11.73
2023-11-25T16:22:47.534Z,14.57
2023-11-25T16:25:15.832Z,15.50
2023-11-25T16:27:44.359Z,11.27
2023-11-25T16:30:16.442Z,16.33
2023-11-25T16:32:45.439Z,12.90
2023-11-25T16:35:16.865Z,11.40
2023-11-25T16:37:45.605Z,10.00
2023-11-25T16:40:15.095Z,11.60
2023-11-25T16:42:43.340Z,10.73
2023-11-25T16:45:13.461Z,11.77
2023-11-25T16:47:42.005Z,15.00
2023-11-25T16:50:10.827Z,12.37
2023-11-25T16:52:39.129Z,10.77
2023-11-25T16:55:09.037Z,11.73
2023-11-25T16:57:37.883Z,14.47
2023-11-25T17:00:08.265Z,13.73
2023-11-25T17:02:38.056Z,12.63
2023-11-25T17:05:09.313Z,14.97
2023-11-25T17:07:38.236Z,14.43
2023-11-25T17:10:07.911Z,11.77
2023-11-25T17:12:36.263Z,11.17
2023-11-25T17:15:04.889Z,15.67
2023-11-25T17:17:33.668Z,8.03
2023-11-25T17:20:07.378Z,8.27
2023-11-25T17:22:35.805Z,8.97
2023-11-25T17:25:04.091Z,7.90
2023-11-25T17:27:32.509Z,9.13
2023-11-25T17:30:00.769Z,11.87
2023-11-25T17:32:29.024Z,11.03
2023-11-25T17:34:58.170Z,8.07
2023-11-25T17:37:28.263Z,10.70
2023-11-25T17:39:56.498Z,10.00
2023-11-25T17:42:25.092Z,12.40
2023-11-25T17:44:53.356Z,10.07
2023-11-25T17:47:22.951Z,12.67
2023-11-25T17:49:51.363Z,9.17
2023-11-25T17:52:19.662Z,10.70
2023-11-25T17:54:49.621Z,10.73
2023-11-25T17:57:17.811Z,9.13
2023-11-25T17:59:46.176Z,10.13
2023-11-25T18:02:14.480Z,10.20
2023-11-25T18:04:42.910Z,9.27
2023-11-25T18:07:11.734Z,12.87
2023-11-25T18:09:40.167Z,11.43
2023-11-25T18:12:10.531Z,15.20
2023-11-25T18:14:39.432Z,13.00
2023-11-25T18:17:07.833Z,14.63
2023-11-25T18:19:36.285Z,15.80
2023-11-25T18:22:04.628Z,14.90
2023-11-25T18:24:32.815Z,13.63
2023-11-25T18:27:01.151Z,12.37
2023-11-25T18:29:31.014Z,9.23
2023-11-25T18:31:59.357Z,11.60
2023-11-25T18:34:28.577Z,15.70
2023-11-25T18:36:57.468Z,15.70
2023-11-25T18:39:25.965Z,14.70
2023-11-25T18:41:54.208Z,14.17
2023-11-25T18:44:22.567Z,14.10
2023-11-25T18:46:52.386Z,10.53
2023-11-25T18:49:20.720Z,10.47
2023-11-25T18:51:49.011Z,9.93
2023-11-25T18:54:17.298Z,10.53
2023-11-25T18:56:45.617Z,12.00
2023-11-25T18:59:16.377Z,13.67
2023-11-25T19:01:44.889Z,14.30
2023-11-25T19:04:14.577Z,15.30
2023-11-25T19:06:45.368Z,15.07
2023-11-25T19:09:14.357Z,17.43
2023-11-25T19:11:43.736Z,21.27
2023-11-25T19:14:14.068Z,18.73
2023-11-25T19:16:42.633Z,15.60
2023-11-25T19:19:12.166Z,18.83
2023-11-25T19:21:41.916Z,18.10
2023-11-25T19:24:10.346Z,17.30
2023-11-25T19:26:41.479Z,13.83
2023-11-25T19:29:10.420Z,16.10
2023-11-25T19:31:38.723Z,14.47
2023-11-25T19:34:07.521Z,13.80
2023-11-25T19:36:35.929Z,13.23
2023-11-25T19:39:06.959Z,10.97
2023-11-25T19:41:35.312Z,9.60
2023-11-25T19:44:03.606Z,12.00
2023-11-25T19:46:32.016Z,12.60
2023-11-25T19:49:00.252Z,13.77
2023-11-25T19:51:28.460Z,12.27
2023-11-25T19:53:56.866Z,13.40
2023-11-25T19:56:26.506Z,11.37
2023-11-25T19:58:54.796Z,14.67
2023-11-25T20:01:23.052Z,13.73
2023-11-25T20:03:51.449Z,13.93
2023-11-25T20:06:19.781Z,13.13
2023-11-25T20:08:48.079Z,14.23
2023-11-25T20:11:16.578Z,12.13
2023-11-25T20:13:46.282Z,15.83
2023-11-25T20:16:14.662Z,19.03
2023-11-25T20:18:43.085Z,17.13
2023-11-25T20:21:11.321Z,14.20
2023-11-25T20:23:42.158Z,13.57
2023-11-25T20:26:11.120Z,13.27
2023-11-25T20:28:39.435Z,15.90
2023-11-25T20:31:09.890Z,11.63
2023-11-25T20:33:38.342Z,18.63
2023-11-25T20:36:09.527Z,12.67
2023-11-25T20:38:37.796Z,14.30
2023-11-25T20:41:06.435Z,17.20
2023-11-25T20:43:34.728Z,16.00
2023-11-25T20:46:03.154Z,32.33
2023-11-25T20:48:37.283Z,21.00
2023-11-25T20:51:08.089Z,20.87
2023-11-25T20:53:36.464Z,17.00
2023-11-25T20:56:05.522Z,15.87
2023-11-25T20:58:34.884Z,16.87
2023-11-25T21:01:04.543Z,23.33
2023-11-25T21:03:33.130Z,24.03
2023-11-25T21:06:02.954Z,21.27
2023-11-25T21:08:31.283Z,21.73
2023-11-25T21:10:59.562Z,17.53
2023-11-25T21:13:27.895Z,14.40
2023-11-25T21:15:56.103Z,15.83
2023-11-25T21:18:24.526Z,18.03
2023-11-25T21:20:53.337Z,22.83
2023-11-25T21:23:22.946Z,29.07
2023-11-25T21:25:51.267Z,22.70
2023-11-25T21:28:19.829Z,20.97
2023-11-25T21:30:49.232Z,17.80
2023-11-25T21:33:17.612Z,15.83
2023-11-25T21:35:48.213Z,13.77
2023-11-25T21:38:16.500Z,12.53
2023-11-25T21:40:46.436Z,14.47
2023-11-25T21:43:14.810Z,12.77
2023-11-25T21:45:43.086Z,12.67
2023-11-25T21:48:11.382Z,10.67
2023-11-25T21:50:39.705Z,13.07
2023-11-25T21:53:08.112Z,15.60
2023-11-25T21:55:36.436Z,15.77
2023-11-25T21:58:06.484Z,15.93
2023-11-25T22:00:35.008Z,16.27
2023-11-25T22:03:03.989Z,14.90
2023-11-25T22:05:32.450Z,15.00
2023-11-25T22:08:01.548Z,15.73
2023-11-25T22:10:31.736Z,16.10
2023-11-25T22:13:01.142Z,15.63
2023-11-25T22:15:30.828Z,13.60
2023-11-25T22:17:59.203Z,14.50
2023-11-25T22:20:27.609Z,12.73
2023-11-25T22:22:57.300Z,13.80
2023-11-25T22:25:35.570Z,13.47
2023-11-25T22:28:04.653Z,12.40
2023-11-25T22:30:34.301Z,17.17
2023-11-25T22:33:02.818Z,18.03
2023-11-25T22:35:31.105Z,14.53
2023-11-25T22:37:59.445Z,14.50
2023-11-25T22:40:27.685Z,13.23
2023-11-25T22:42:56.249Z,12.23
2023-11-25T22:45:24.556Z,14.40
2023-11-25T22:47:54.408Z,14.77
2023-11-25T22:50:22.781Z,13.90
2023-11-25T22:52:51.562Z,12.83
2023-11-25T22:55:19.805Z,12.47
2023-11-25T22:57:49.614Z,11.57
2023-11-25T23:00:29.449Z,12.30
2023-11-25T23:02:59.812Z,14.87
2023-11-25T23:05:28.421Z,12.03
2023-11-25T23:07:57.338Z,16.03
2023-11-25T23:10:25.804Z,16.23
2023-11-25T23:12:54.025Z,14.43
2023-11-25T23:15:22.645Z,15.37
2023-11-25T23:17:51.070Z,15.13
2023-11-25T23:20:20.773Z,17.70
2023-11-25T23:22:49.119Z,16.23
2023-11-25T23:25:17.567Z,17.33
2023-11-25T23:27:45.927Z,13.50
2023-11-25T23:30:14.629Z,13.23
2023-11-25T23:32:43.563Z,15.97
2023-11-25T23:35:12.279Z,16.60
2023-11-25T23:37:42.013Z,19.00
2023-11-25T23:40:11.152Z,14.03
2023-11-25T23:42:40.041Z,17.97
2023-11-25T23:45:08.934Z,14.13
2023-11-25T23:47:39.960Z,15.50
2023-11-25T23:50:09.183Z,16.83
2023-11-25T23:52:39.372Z,17.80
2023-11-25T23:55:10.647Z,14.57
2023-11-25T23:57:39.292Z,12.53
